Nearby METAR Reports

 

EGEO - Oban, United Kingdom
Distance from station: SSW 18mi, 30km
Updated: 23/04/2019 14:50
Clear
Clear
 Wind from ESE
Wind: ESE 18 mph , 30 km/h, Gust: 30 mph , 48 km/h
Temperature: 19°C
Dew Point: 6°C
Humidity: 43%
Barometer: 998 hPa
Summary: Clear
Visibility: greater than 7 miles , 10 km
2019/04/23 13:50 EGEO 231350Z 11016G26KT 080V140 CAVOK 19/06 Q0998
EGPU - Tiree, United Kingdom
Distance from station: WSW 64mi, 103km
Updated: 23/04/2019 15:50
Clear
Clear
 Wind from SE
Wind: SE 12 mph , 19 km/h
Temperature: 16°C
Dew Point: 9°C
Humidity: 63%
Barometer: 997 hPa
Summary: Clear
Visibility: greater than 7 miles , 10 km
2019/04/23 14:50 EGPU 231450Z 14010KT CAVOK 16/09 Q0997
EGPF - Glasgow, United Kingdom
Distance from station: SSE 66mi, 107km
Updated: 23/04/2019 15:50
Clear
Clear
 Wind from ENE
Wind: ENE 22 mph , 35 km/h
Temperature: 16°C
Dew Point: 8°C
Humidity: 59%
Barometer: 999 hPa
Clouds: Clear
Visibility: 6 miles , 10 km
2019/04/23 14:50 EGPF 231450Z AUTO 07019KT 9999 NCD 16/08 Q0999
 
EGPE - Inverness, United Kingdom
Distance from station: NE 71mi, 114km
Updated: 23/04/2019 15:50
Clear
Clear
 Wind from ESE
Wind: ESE 12 mph , 19 km/h
Temperature: 17°C
Dew Point: 6°C
Humidity: 49%
Barometer: 1000 hPa
Summary: Clear
Visibility: greater than 7 miles , 10 km
2019/04/23 14:50 EGPE 231450Z 11010KT CAVOK 17/06 Q1000
EGPI - Islay/Port Ellen, United Kingdom
Distance from station: SSW 81mi, 131km
Updated: 23/04/2019 15:50
Clear
Clear
 Wind from ENE
Wind: ENE 21 mph , 33 km/h
Temperature: 18°C
Dew Point: 9°C
Humidity: 56%
Barometer: 996 hPa
Summary: Clear
Visibility: greater than 7 miles , 10 km
2019/04/23 14:50 EGPI 231450Z 07018KT 040V110 CAVOK 18/09 Q0996
EGPN - Dundee/Riverside, United Kingdom
Distance from station: E 86mi, 138km
Updated: 23/04/2019 15:50
Few Clouds
Few Clouds
 Wind from E
Wind: E 16 mph , 26 km/h
Temperature: 11°C
Dew Point: 8°C
Humidity: 82%
Barometer: 1003 hPa
Clouds: Few Clouds
Visibility: 6 miles , 9 km
Cloud details: Few Clouds 335 m
2019/04/23 14:50 EGPN 231450Z 10014KT 9000 FEW011 11/08 Q1003
 
EGPK - Prestwick, United Kingdom
Distance from station: SSE 88mi, 141km
Updated: 23/04/2019 15:50
Few Clouds
Few Clouds
 Wind from ESE
Wind: ESE 14 mph , 22 km/h
Temperature: 22°C
Dew Point: 6°C
Humidity: 36%
Barometer: 998 hPa
Clouds: Few Clouds
Visibility: 6 miles , 10 km
Cloud details: Few Clouds 1372 m
2019/04/23 14:50 EGPK 231450Z 11012KT 9999 FEW045 22/06 Q0998
EGPH - Edinburgh, United Kingdom
Distance from station: SE 89mi, 143km
Updated: 23/04/2019 15:50
Few Clouds
Few Clouds
 Wind from NE
Wind: NE 16 mph , 26 km/h
Temperature: 10°C
Wind Chill: 7°C
Dew Point: 8°C
Humidity: 88%
Barometer: 1001 hPa
Clouds: Few Clouds
Visibility: 5 miles , 8 km
Cloud details: Few Clouds 183 m
2019/04/23 14:50 EGPH 231450Z 04014KT 8000 FEW006 10/08 Q1001
EGQK - RAF Kinloss, United Kingdom
Distance from station: NE 90mi, 144km
Updated: 23/04/2019 14:50
Clear
Clear
 Wind from ESE
Wind: ESE 10 mph , 17 km/h
Temperature: 17°C
Dew Point: 5°C
Humidity: 45%
Barometer: 1002 hPa
Clouds: Clear
Visibility: 6 miles , 10 km
2019/04/23 13:50 EGQK 231350Z AUTO 11009KT 9999 NCD 17/05 Q1002
 
EGEC - Campbeltown, United Kingdom
Distance from station: S 90mi, 145km
Updated: 23/04/2019 15:50
Clear
Clear
 Wind from E
Wind: E 18 mph , 30 km/h
Temperature: 20°C
Dew Point: 9°C
Humidity: 49%
Barometer: 996 hPa
Summary: Clear
Visibility: greater than 7 miles , 10 km
2019/04/23 14:50 EGEC 231450Z 10016KT CAVOK 20/09 Q0996
EGQA - Tain Range, United Kingdom
Distance from station: NNE 91mi, 146km
Updated: 23/04/2019 14:50
Few Clouds
Few Clouds
 Wind from E
Wind: E 17 mph , 28 km/h
Clouds: Few Clouds
Visibility: 6 miles , 10 km
Cloud details: Few Clouds 335 m
2019/04/23 13:50 EGQA 231350Z 09015KT 9999 FEW011 13/// Q1002 BLU
EGQL - RAF Leuchars, United Kingdom
Distance from station: ESE 93mi, 149km
Updated: 23/04/2019 15:50
Haze, Partly cloudy
Haze, Partly cloudy
 Wind from E
Wind: E 18 mph , 30 km/h
Temperature: 11°C
Dew Point: 8°C
Humidity: 82%
Barometer: 1003 hPa
Summary: Haze
Clouds: Partly cloudy
Visibility: 4 miles , 7 km
Cloud details: Partly cloudy 457 m
2019/04/23 14:50 EGQL 231450Z 09016KT 7000 HZ SCT015 11/08 Q1003 WHT
 
EGPL - Benbecula, United Kingdom
Distance from station: WNW 96mi, 154km
Updated: 23/04/2019 15:50
Clear
Clear
 Wind from SSE
Wind: SSE 12 mph , 19 km/h
Temperature: 19°C
Dew Point: 7°C
Humidity: 46%
Barometer: 997 hPa
Summary: Clear
Visibility: greater than 7 miles , 10 km
2019/04/23 14:50 EGPL 231450Z 16010KT CAVOK 19/07 Q0997
EGQS - RAF Lossiemouth, United Kingdom
Distance from station: NE 99mi, 160km
Updated: 23/04/2019 14:50
Overcast
Overcast
 Wind from ESE
Wind: ESE 26 mph , 43 km/h
Temperature: 16°C
Dew Point: 5°C
Humidity: 48%
Barometer: 1002 hPa
Clouds: Overcast
Visibility: 6 miles , 10 km
Cloud details: Few Clouds 1219 m
Partly cloudy 4572 m
Overcast 7620 m
2019/04/23 13:50 EGQS 231350Z 12023KT 9999 FEW040 SCT150 OVC250 16/05 Q1002 BLU NOSIG
EGPO - Stornoway, United Kingdom
Distance from station: NNW 111mi, 179km
Updated: 23/04/2019 15:50
Clear
Clear
 Wind from ESE
Wind: ESE 14 mph , 22 km/h
Temperature: 16°C
Dew Point: 8°C
Humidity: 59%
Barometer: 998 hPa
Summary: Clear
Visibility: greater than 7 miles , 10 km
2019/04/23 14:50 EGPO 231450Z 11012KT CAVOK 16/08 Q0998
 
EGPD - Aberdeen/Dyce, United Kingdom
Distance from station: ENE 118mi, 190km
Updated: 23/04/2019 15:50
Mostly cloudy
Mostly cloudy
 Wind from SE
Wind: SE 16 mph , 26 km/h
Temperature: 10°C
Wind Chill: 7°C
Dew Point: 7°C
Humidity: 82%
Barometer: 1005 hPa
Clouds: Mostly cloudy
Visibility: 6 miles , 9 km
Cloud details: Mostly cloudy 274 m
2019/04/23 14:50 EGPD 231450Z 13014KT 9000 BKN009 10/07 Q1005
EGAE - Eglinton/Londond, United Kingdom
Distance from station: SSW 138mi, 222km
Updated: 23/04/2019 15:50
Clear
Clear
 Wind from ENE
Wind: ENE 10 mph , 17 km/h
Temperature: 16°C
Dew Point: 12°C
Humidity: 77%
Barometer: 995 hPa
Summary: Clear
Visibility: greater than 7 miles , 10 km
2019/04/23 14:50 EGAE 231450Z 06009KT 030V120 CAVOK 16/12 Q0995
EGPC - Wick, United Kingdom
Distance from station: NNE 144mi, 232km
Updated: 23/04/2019 15:50
Partly cloudy
Partly cloudy
 Wind from SE
Wind: SE 28 mph , 44 km/h
Temperature: 9°C
Wind Chill: 4°C
Dew Point: 8°C
Humidity: 94%
Barometer: 1004 hPa
Clouds: Partly cloudy
Visibility: 5 miles , 8 km
2019/04/23 14:50 EGPC 231450Z 14024KT 8000 NSC 09/08 Q1004

Metar display script from Saratoga-Weather.org